Time;durP1;ratioP1;P1;durP2;ratioP2;P2;SDS_P1;SDS_P2;PMS_P1;PMS_P2;Temp;Humidity;BMP_temperature;BMP_pressure;BME280_temperature;BME280_humidity;BME280_pressure;Samples;Min_cycle;Max_cycle;Signal;HPM_P1;HPM_P2
2023/10/22 00:00:48;;;;;;;3.35;0.73;;;14.60;1.00;;;;;;4958219;28;20471;-91
2023/10/22 00:03:14;;;;;;;0.90;0.50;;;14.50;1.00;;;;;;4966142;28;20396;-92
2023/10/22 00:05:40;;;;;;;1.73;0.70;;;;;;;;;;4959302;28;20737;-91
2023/10/22 00:08:06;;;;;;;2.45;0.70;;;;;;;;;;4957992;28;20392;-92
2023/10/22 00:10:32;;;;;;;1.88;0.70;;;14.40;1.00;;;;;;4957726;28;20408;-89
2023/10/22 00:12:57;;;;;;;1.38;0.90;;;14.30;1.00;;;;;;4956932;28;20430;-90
2023/10/22 00:15:25;;;;;;;1.02;0.75;;;;;;;;;;4973626;28;20487;-91
2023/10/22 00:17:51;;;;;;;1.80;1.10;;;;;;;;;;4957598;28;20404;-90
2023/10/22 00:20:17;;;;;;;2.10;0.60;;;;;;;;;;4957462;28;20396;-88
2023/10/22 00:22:42;;;;;;;2.08;0.70;;;14.60;1.00;;;;;;4956521;28;20403;-91
2023/10/22 00:25:09;;;;;;;1.70;0.60;;;14.40;1.00;;;;;;4956545;28;20392;-91
2023/10/22 00:27:35;;;;;;;1.40;0.60;;;;;;;;;;4957978;28;20404;-91
2023/10/22 00:30:00;;;;;;;0.75;0.57;;;14.30;1.00;;;;;;4956442;28;20495;-91
2023/10/22 00:32:27;;;;;;;1.40;0.60;;;14.10;1.00;;;;;;4956521;28;20487;-91
2023/10/22 00:34:53;;;;;;;1.50;0.47;;;14.30;1.00;;;;;;4956491;28;20392;-91
2023/10/22 00:37:19;;;;;;;2.42;0.82;;;;;;;;;;4956680;28;20396;-89
2023/10/22 00:39:45;;;;;;;2.50;0.63;;;14.30;1.00;;;;;;4956436;28;20419;-91
2023/10/22 00:42:10;;;;;;;2.10;0.70;;;14.30;1.00;;;;;;4956296;28;20404;-91
2023/10/22 00:44:39;;;;;;;1.70;0.70;;;;;;;;;;4955829;28;20396;-91
2023/10/22 00:47:05;;;;;;;2.30;0.70;;;14.20;1.00;;;;;;4956148;28;20567;-91
2023/10/22 00:49:31;;;;;;;1.95;0.60;;;17.80;1.00;;;;;;4956300;28;20915;-90
2023/10/22 00:51:58;;;;;;;1.40;0.63;;;14.10;1.00;;;;;;4956517;28;20470;-91
2023/10/22 00:54:26;;;;;;;1.60;0.68;;;16.50;1.00;;;;;;4956318;28;20400;-91
2023/10/22 00:56:54;;;;;;;1.88;0.70;;;14.20;1.00;;;;;;4955673;28;20403;-91
2023/10/22 00:59:20;;;;;;;2.90;0.90;;;14.20;1.00;;;;;;4956111;28;20452;-91
2023/10/22 01:01:46;;;;;;;2.10;0.70;;;14.20;1.00;;;;;;4955716;28;20395;-91
2023/10/22 01:04:12;;;;;;;1.15;0.70;;;14.20;1.00;;;;;;4956157;28;20392;-89
2023/10/22 01:06:38;;;;;;;1.53;0.70;;;13.90;1.00;;;;;;4973115;28;20388;-91
2023/10/22 01:09:05;;;;;;;2.30;0.77;;;13.70;1.00;;;;;;4955804;28;20831;-91
2023/10/22 01:11:32;;;;;;;2.10;0.70;;;14.20;1.00;;;;;;4956067;28;20451;-91
2023/10/22 01:13:58;;;;;;;2.05;0.90;;;14.10;1.00;;;;;;4973519;28;20412;-90
2023/10/22 01:16:24;;;;;;;4.00;0.80;;;14.00;1.00;;;;;;4955952;28;20392;-90
2023/10/22 01:18:49;;;;;;;1.80;0.60;;;14.00;1.00;;;;;;4956278;28;20812;-91
2023/10/22 01:21:15;;;;;;;1.37;0.40;;;14.00;1.00;;;;;;4955676;28;20400;-90
2023/10/22 01:23:41;;;;;;;3.03;0.98;;;17.30;1.00;;;;;;4955839;28;20417;-88
2023/10/22 01:26:07;;;;;;;2.00;0.63;;;14.00;1.00;;;;;;4955804;28;20435;-91
2023/10/22 01:28:34;;;;;;;1.60;0.60;;;13.60;1.00;;;;;;4956113;28;20428;-91
2023/10/22 01:31:00;;;;;;;2.75;0.70;;;14.10;1.00;;;;;;4956127;28;20396;-91
2023/10/22 01:33:26;;;;;;;2.20;0.60;;;14.00;1.00;;;;;;4955929;28;20407;-91
2023/10/22 01:35:52;;;;;;;2.40;0.90;;;13.80;1.00;;;;;;4955500;28;20392;-90
2023/10/22 01:38:17;;;;;;;1.42;0.80;;;13.90;1.00;;;;;;4955771;28;20414;-91
2023/10/22 01:40:43;;;;;;;1.83;1.10;;;13.90;1.00;;;;;;4955625;28;20392;-91
2023/10/22 01:43:08;;;;;;;1.70;0.70;;;13.80;1.00;;;;;;4955961;28;20388;-92
2023/10/22 01:45:34;;;;;;;2.07;0.80;;;14.80;1.00;;;;;;4955683;28;20419;-91
2023/10/22 01:48:00;;;;;;;1.48;0.85;;;14.40;1.00;;;;;;4955926;28;20438;-91
2023/10/22 01:50:26;;;;;;;3.05;0.70;;;13.80;1.00;;;;;;4956070;28;20431;-91
2023/10/22 01:52:52;;;;;;;1.73;0.63;;;13.10;1.00;;;;;;4956253;28;20413;-89
2023/10/22 01:55:18;;;;;;;0.80;0.60;;;13.90;1.00;;;;;;4955811;28;20396;-89
2023/10/22 01:57:44;;;;;;;1.27;0.60;;;13.90;1.00;;;;;;4972301;28;20491;-90
2023/10/22 02:00:11;;;;;;;1.85;0.57;;;13.90;1.00;;;;;;4982134;28;20507;-92
2023/10/22 02:02:38;;;;;;;1.30;0.60;;;13.80;1.00;;;;;;4980303;28;20416;-91
2023/10/22 02:05:04;;;;;;;1.88;1.00;;;14.70;1.00;;;;;;4979577;28;20423;-89
2023/10/22 02:07:29;;;;;;;1.80;0.60;;;13.80;1.00;;;;;;4959917;28;20400;-91
2023/10/22 02:09:55;;;;;;;1.93;0.63;;;13.30;1.00;;;;;;4959012;28;20404;-90
2023/10/22 02:12:30;;;;;;;2.75;0.82;;;13.60;1.00;;;;;;4959818;28;20411;-91
2023/10/22 02:14:56;;;;;;;1.20;0.60;;;12.60;1.00;;;;;;4958656;28;20405;-91
2023/10/22 02:17:22;;;;;;;0.98;0.50;;;12.40;1.00;;;;;;4959955;28;20388;-90
2023/10/22 02:19:47;;;;;;;2.00;0.70;;;13.60;1.00;;;;;;4959366;28;20404;-91
2023/10/22 02:22:15;;;;;;;1.80;0.60;;;13.30;1.00;;;;;;4959042;28;20399;-92
2023/10/22 02:24:41;;;;;;;1.17;0.50;;;13.50;1.00;;;;;;4959334;28;20471;-90
2023/10/22 02:27:06;;;;;;;1.50;0.60;;;13.50;1.00;;;;;;4959193;28;20401;-90
2023/10/22 02:29:32;;;;;;;1.92;0.60;;;13.50;1.00;;;;;;4977741;28;20384;-90
2023/10/22 02:31:57;;;;;;;2.70;1.03;;;14.80;1.00;;;;;;4976713;28;20408;-91
2023/10/22 02:34:23;;;;;;;2.23;0.80;;;13.40;1.00;;;;;;4977086;28;20404;-92
2023/10/22 02:36:49;;;;;;;2.70;0.75;;;13.40;1.00;;;;;;4976819;28;20908;-90
2023/10/22 02:39:14;;;;;;;3.60;0.80;;;11.50;1.00;;;;;;4970867;28;20420;-92
2023/10/22 02:41:40;;;;;;;1.83;0.80;;;12.40;1.00;;;;;;4959726;28;20396;-91
2023/10/22 02:44:05;;;;;;;1.70;1.10;;;13.40;1.00;;;;;;4959002;28;20494;-91
2023/10/22 02:46:31;;;;;;;3.25;0.80;;;13.20;1.00;;;;;;4966809;28;20392;-90
2023/10/22 02:48:58;;;;;;;2.45;0.70;;;13.30;1.00;;;;;;4959280;28;20447;-90
2023/10/22 02:51:24;;;;;;;1.60;0.70;;;14.60;1.00;;;;;;4975459;28;20764;-90
2023/10/22 02:53:49;;;;;;;2.45;0.63;;;13.40;1.00;;;;;;4958100;28;20400;-90
2023/10/22 02:56:15;;;;;;;2.95;0.60;;;12.40;1.00;;;;;;4958107;28;20903;-89
2023/10/22 02:58:41;;;;;;;3.00;0.60;;;13.20;1.00;;;;;;4958553;28;20408;-90
2023/10/22 03:01:09;;;;;;;1.73;0.60;;;13.40;1.00;;;;;;4957908;28;20400;-90
2023/10/22 03:03:44;;;;;;;2.67;0.90;;;14.90;1.00;;;;;;4958309;28;20408;-90
2023/10/22 03:06:13;;;;;;;1.02;0.75;;;12.90;1.00;;;;;;4958371;28;20506;-91
2023/10/22 03:08:40;;;;;;;1.80;0.70;;;12.20;1.00;;;;;;4957992;28;20908;-90
2023/10/22 03:11:13;;;;;;;2.58;0.80;;;13.10;1.00;;;;;;4958016;28;20479;-91
2023/10/22 03:13:38;;;;;;;1.40;0.70;;;13.20;1.00;;;;;;4957990;28;20437;-90
2023/10/22 03:16:11;;;;;;;1.93;0.67;;;13.10;1.00;;;;;;4957539;28;20434;-90
2023/10/22 03:18:42;;;;;;;1.70;0.70;;;14.00;1.00;;;;;;4957518;28;20447;-91
2023/10/22 03:21:11;;;;;;;1.70;0.70;;;13.10;1.00;;;;;;4958160;28;20446;-91
2023/10/22 03:23:43;;;;;;;1.17;0.70;;;15.70;1.00;;;;;;4957593;28;20384;-90
2023/10/22 03:26:11;;;;;;;1.40;0.68;;;13.00;1.00;;;;;;4957621;28;20939;-91
2023/10/22 03:28:37;;;;;;;1.20;0.77;;;13.10;1.00;;;;;;4957630;28;20506;-91
2023/10/22 03:31:04;;;;;;;2.28;0.60;;;13.20;1.00;;;;;;4958606;28;20397;-91
2023/10/22 03:33:31;;;;;;;3.28;0.60;;;13.20;1.00;;;;;;4957768;28;20392;-91
2023/10/22 03:35:57;;;;;;;1.67;0.77;;;16.50;1.00;;;;;;4957207;28;20450;-91
2023/10/22 03:38:24;;;;;;;2.80;0.75;;;13.00;1.00;;;;;;4957323;28;20774;-91
2023/10/22 03:41:05;;;;;;;1.63;0.70;;;14.90;1.00;;;;;;4957420;28;20399;-91
2023/10/22 03:43:32;;;;;;;1.40;0.60;;;15.40;1.00;;;;;;4957332;28;20392;-90
2023/10/22 03:45:59;;;;;;;1.20;0.60;;;13.20;1.00;;;;;;4957491;28;20726;-91
2023/10/22 03:48:25;;;;;;;2.60;0.70;;;13.10;1.00;;;;;;4957361;28;20996;-89
2023/10/22 03:50:52;;;;;;;2.00;0.90;;;12.80;1.00;;;;;;4956891;28;20430;-90
2023/10/22 03:53:17;;;;;;;1.70;0.80;;;12.80;1.00;;;;;;4957094;28;20459;-91
2023/10/22 03:55:43;;;;;;;2.80;0.70;;;16.70;1.00;;;;;;4957384;28;20393;-90
2023/10/22 03:58:09;;;;;;;2.85;0.65;;;12.30;1.00;;;;;;4957169;28;20414;-91
2023/10/22 04:00:34;;;;;;;2.03;0.73;;;13.10;1.00;;;;;;4963726;28;20479;-91
2023/10/22 04:03:01;;;;;;;3.60;0.68;;;13.10;1.00;;;;;;4976078;28;20423;-91
2023/10/22 04:05:26;;;;;;;1.40;0.70;;;13.10;1.00;;;;;;4959685;28;20475;-91
2023/10/22 04:07:52;;;;;;;0.80;0.40;;;15.00;1.00;;;;;;4958554;28;20490;-91
2023/10/22 04:10:18;;;;;;;3.20;0.63;;;13.00;1.00;;;;;;4958537;28;20395;-91
2023/10/22 04:12:44;;;;;;;3.80;1.08;;;13.00;1.00;;;;;;4957534;28;20410;-91
2023/10/22 04:15:10;;;;;;;1.98;0.70;;;14.70;1.00;;;;;;4957331;28;20862;-91
2023/10/22 04:17:35;;;;;;;2.40;0.77;;;13.00;1.00;;;;;;4957065;28;20428;-90
2023/10/22 04:20:02;;;;;;;1.90;1.00;;;13.00;1.00;;;;;;4957260;28;20393;-91
2023/10/22 04:22:27;;;;;;;3.05;0.90;;;12.80;1.00;;;;;;4984227;28;20435;-94
2023/10/22 04:24:53;;;;;;;1.97;0.77;;;12.80;1.00;;;;;;4973652;28;20413;-91
2023/10/22 04:27:19;;;;;;;4.03;1.30;;;12.80;1.00;;;;;;4978882;28;20384;-93
2023/10/22 04:29:46;;;;;;;1.90;0.70;;;12.80;1.00;;;;;;4977628;28;20460;-94
2023/10/22 04:32:12;;;;;;;2.28;0.70;;;12.20;1.00;;;;;;4969339;28;20406;-91
2023/10/22 04:34:38;;;;;;;2.03;0.70;;;14.90;1.00;;;;;;4958761;28;20824;-91
2023/10/22 04:37:04;;;;;;;1.20;0.60;;;12.40;1.00;;;;;;4959754;28;20474;-90
2023/10/22 04:39:30;;;;;;;2.13;0.70;;;12.70;1.00;;;;;;4957617;28;20416;-89
2023/10/22 04:41:56;;;;;;;3.80;0.90;;;14.10;1.00;;;;;;4956676;28;20408;-90
2023/10/22 04:44:22;;;;;;;3.60;0.80;;;11.90;1.00;;;;;;4956497;28;20406;-89
2023/10/22 04:46:47;;;;;;;3.03;0.97;;;12.80;1.00;;;;;;4956641;28;20769;-89
2023/10/22 04:49:13;;;;;;;1.40;0.63;;;12.50;1.00;;;;;;4956264;28;20402;-89
2023/10/22 04:51:39;;;;;;;1.67;0.70;;;12.50;1.00;;;;;;4956207;28;20400;-88
2023/10/22 04:54:05;;;;;;;1.35;0.80;;;12.40;1.00;;;;;;4956111;28;20400;-90
2023/10/22 04:56:31;;;;;;;2.60;0.70;;;12.80;1.00;;;;;;4956485;28;20741;-89
2023/10/22 04:58:57;;;;;;;2.10;0.60;;;11.20;1.00;;;;;;4957890;28;20926;-89
2023/10/22 05:01:23;;;;;;;1.40;0.70;;;12.40;1.00;;;;;;4940848;28;20495;-90
2023/10/22 05:03:48;;;;;;;1.60;0.50;;;12.60;1.00;;;;;;4956772;28;20491;-89
2023/10/22 05:06:14;;;;;;;1.30;0.85;;;12.30;1.00;;;;;;4956125;28;20392;-89
2023/10/22 05:08:40;;;;;;;3.70;0.98;;;12.60;1.00;;;;;;4956387;28;20442;-90
2023/10/22 05:11:11;;;;;;;2.03;0.70;;;11.60;1.00;;;;;;4956990;28;20392;-91
2023/10/22 05:13:37;;;;;;;2.58;0.73;;;15.10;1.00;;;;;;4956730;28;20819;-89
2023/10/22 05:16:02;;;;;;;1.60;0.80;;;12.80;1.00;;;;;;4956291;28;20457;-90
2023/10/22 05:18:28;;;;;;;2.47;0.80;;;12.80;1.00;;;;;;4956343;28;20431;-88
2023/10/22 05:21:00;;;;;;;2.10;0.70;;;12.60;1.00;;;;;;4955900;28;20392;-89
2023/10/22 05:23:26;;;;;;;3.20;0.70;;;12.50;1.00;;;;;;4955848;28;20392;-89
2023/10/22 05:26:08;;;;;;;2.47;1.10;;;15.00;1.00;;;;;;4957847;28;20472;-89
2023/10/22 05:28:34;;;;;;;2.00;0.70;;;12.70;1.00;;;;;;4947252;29;20397;-90
2023/10/22 05:31:00;;;;;;;1.35;0.75;;;12.00;1.00;;;;;;4942715;29;21215;-89
2023/10/22 05:33:26;;;;;;;2.10;0.60;;;13.30;1.00;;;;;;4941364;29;20492;-90
2023/10/22 05:35:51;;;;;;;2.90;0.80;;;12.30;1.00;;;;;;4940433;29;20400;-89
2023/10/22 05:38:17;;;;;;;2.70;0.70;;;12.40;1.00;;;;;;4956738;28;20415;-90
2023/10/22 05:40:42;;;;;;;2.90;0.90;;;12.30;1.00;;;;;;4959665;28;20400;-91
2023/10/22 05:43:08;;;;;;;3.83;0.90;;;12.70;1.00;;;;;;4960150;28;20396;-89
2023/10/22 05:45:35;;;;;;;2.45;0.75;;;12.50;1.00;;;;;;4962282;28;20406;-90
2023/10/22 05:48:00;;;;;;;4.00;0.70;;;12.20;1.00;;;;;;4961014;28;20412;-90
2023/10/22 05:50:26;;;;;;;2.10;0.90;;;14.90;1.00;;;;;;4960008;28;20396;-89
2023/10/22 05:52:51;;;;;;;2.80;0.87;;;12.30;1.00;;;;;;4965840;28;20500;-91
2023/10/22 05:55:18;;;;;;;2.60;0.60;;;12.30;1.00;;;;;;4972942;28;20415;-90
2023/10/22 05:57:45;;;;;;;2.20;0.73;;;12.50;1.00;;;;;;4960432;28;20475;-90
2023/10/22 06:00:12;;;;;;;3.47;0.65;;;11.50;1.00;;;;;;4959907;28;20427;-90
2023/10/22 06:02:38;;;;;;;1.05;0.60;;;12.60;1.00;;;;;;4959222;28;20424;-89
2023/10/22 06:05:04;;;;;;;3.00;0.80;;;15.20;1.00;;;;;;4959158;28;20400;-90
2023/10/22 06:07:30;;;;;;;2.05;0.73;;;12.60;1.00;;;;;;4959373;28;20547;-89
2023/10/22 06:09:56;;;;;;;1.58;0.60;;;12.60;1.00;;;;;;4961232;28;20513;-90
2023/10/22 06:12:21;;;;;;;3.60;0.70;;;12.60;1.00;;;;;;4959516;28;20392;-90
2023/10/22 06:14:47;;;;;;;2.42;0.70;;;12.70;1.00;;;;;;4958417;28;20403;-88
2023/10/22 06:17:12;;;;;;;1.37;0.90;;;12.60;1.00;;;;;;4959311;28;20789;-89
2023/10/22 06:19:38;;;;;;;4.40;1.00;;;13.60;1.00;;;;;;4959439;28;20404;-89
2023/10/22 06:22:04;;;;;;;3.50;0.90;;;14.00;1.00;;;;;;4959218;28;20388;-89
2023/10/22 06:24:29;;;;;;;3.93;0.70;;;12.70;1.00;;;;;;4958240;28;20396;-90
2023/10/22 06:26:55;;;;;;;2.50;0.70;;;12.40;1.00;;;;;;4959137;28;20423;-90
2023/10/22 06:29:21;;;;;;;4.45;1.00;;;12.60;1.00;;;;;;4958517;28;20451;-89
2023/10/22 06:31:46;;;;;;;2.67;0.63;;;12.30;1.00;;;;;;4958582;28;20418;-89
2023/10/22 06:34:12;;;;;;;3.47;0.77;;;11.70;1.00;;;;;;4958482;28;20392;-89
2023/10/22 06:36:37;;;;;;;2.10;0.82;;;12.40;1.00;;;;;;4958841;28;20977;-90
2023/10/22 06:39:03;;;;;;;1.67;0.68;;;10.90;1.00;;;;;;4963883;28;20797;-88
2023/10/22 06:41:29;;;;;;;2.03;0.82;;;12.70;1.00;;;;;;4960021;28;20401;-89
2023/10/22 06:43:54;;;;;;;2.20;0.70;;;15.20;1.00;;;;;;4958147;28;20400;-90
2023/10/22 06:46:20;;;;;;;2.33;0.70;;;14.20;1.00;;;;;;4958080;28;20404;-89
2023/10/22 06:48:47;;;;;;;3.60;0.70;;;11.80;1.00;;;;;;4958282;28;20405;-89
2023/10/22 06:51:17;;;;;;;2.95;0.77;;;13.90;1.00;;;;;;4958466;28;20395;-89
2023/10/22 06:53:44;;;;;;;4.20;0.80;;;12.60;1.00;;;;;;4958776;28;20479;-89
2023/10/22 06:56:09;;;;;;;2.57;0.67;;;11.20;1.00;;;;;;4957962;28;20775;-89
2023/10/22 06:58:36;;;;;;;1.70;0.60;;;12.70;1.00;;;;;;4958887;28;20491;-89
2023/10/22 07:01:12;;;;;;;1.30;0.57;;;11.70;1.00;;;;;;4957990;28;20392;-89
2023/10/22 07:03:43;;;;;;;2.40;0.70;;;14.40;1.00;;;;;;4957776;28;20403;-89
2023/10/22 07:06:10;;;;;;;0.88;0.40;;;13.00;1.00;;;;;;4958004;28;20392;-89
2023/10/22 07:08:35;;;;;;;1.70;0.87;;;14.40;1.00;;;;;;4958149;28;20391;-89
2023/10/22 07:11:01;;;;;;;2.00;0.60;;;12.70;1.00;;;;;;4972897;28;20472;-90
2023/10/22 07:13:27;;;;;;;2.10;0.80;;;12.60;1.00;;;;;;4969234;28;20483;-89
2023/10/22 07:15:53;;;;;;;1.70;0.57;;;11.00;1.00;;;;;;4958064;28;20539;-89
2023/10/22 07:18:19;;;;;;;2.10;0.60;;;12.80;1.00;;;;;;4958509;28;20499;-89
2023/10/22 07:20:45;;;;;;;2.88;0.85;;;14.70;1.00;;;;;;4958749;28;20395;-89
2023/10/22 07:23:10;;;;;;;2.60;0.80;;;12.90;1.00;;;;;;4965037;28;20388;-89
2023/10/22 07:25:36;;;;;;;1.70;0.60;;;15.20;1.00;;;;;;4982459;28;20408;-90
2023/10/22 07:28:03;;;;;;;2.30;0.70;;;13.30;1.00;;;;;;4982776;28;20400;-91
2023/10/22 07:30:29;;;;;;;2.90;0.90;;;12.70;1.00;;;;;;4982410;28;20396;-90
2023/10/22 07:32:55;;;;;;;2.67;0.70;;;12.80;1.00;;;;;;4981375;28;20444;-92
2023/10/22 07:35:21;;;;;;;1.73;0.53;;;12.70;1.00;;;;;;4981153;28;20412;-89
2023/10/22 07:37:47;;;;;;;1.90;0.68;;;12.30;1.00;;;;;;4980872;28;20420;-91
2023/10/22 07:40:14;;;;;;;2.38;0.80;;;11.90;1.00;;;;;;4980262;28;20415;-91
2023/10/22 07:42:41;;;;;;;2.25;0.70;;;12.70;1.00;;;;;;4976053;28;20400;-90
2023/10/22 07:45:08;;;;;;;1.40;0.80;;;12.40;1.00;;;;;;4964348;28;20425;-90
2023/10/22 07:47:35;;;;;;;2.50;0.60;;;12.70;1.00;;;;;;4957996;28;20407;-90
2023/10/22 07:50:01;;;;;;;1.08;0.80;;;12.70;1.00;;;;;;4958079;28;20400;-90
2023/10/22 07:52:26;;;;;;;0.90;0.60;;;12.20;1.00;;;;;;4958669;28;20454;-90
2023/10/22 07:54:52;;;;;;;0.80;0.77;;;13.10;1.00;;;;;;4957983;28;20913;-90
2023/10/22 07:57:18;;;;;;;1.65;0.82;;;12.90;1.00;;;;;;4957923;28;20389;-90
2023/10/22 07:59:44;;;;;;;2.10;0.70;;;12.70;1.00;;;;;;4957718;28;20431;-90
2023/10/22 08:02:10;;;;;;;1.03;0.50;;;12.10;1.00;;;;;;4957449;28;20396;-90
2023/10/22 08:04:37;;;;;;;1.80;0.70;;;12.70;1.00;;;;;;4957508;28;20820;-89
2023/10/22 08:07:03;;;;;;;1.50;0.60;;;12.80;1.00;;;;;;4959896;28;20392;-89
2023/10/22 08:09:29;;;;;;;1.90;0.70;;;14.90;1.00;;;;;;4957942;28;20435;-90
2023/10/22 08:11:54;;;;;;;2.80;0.90;;;16.40;1.00;;;;;;4962940;28;20469;-90
2023/10/22 08:14:20;;;;;;;3.83;0.77;;;12.10;1.00;;;;;;4959759;28;20427;-90
2023/10/22 08:16:45;;;;;;;1.90;0.83;;;15.60;1.00;;;;;;4958151;28;20454;-91
2023/10/22 08:19:11;;;;;;;1.00;0.60;;;13.10;1.00;;;;;;4958544;28;20412;-90
2023/10/22 08:21:36;;;;;;;2.83;0.80;;;14.90;1.00;;;;;;4978424;28;20396;-91
2023/10/22 08:24:02;;;;;;;3.60;1.00;;;12.50;1.00;;;;;;4960252;28;20496;-91
2023/10/22 08:26:28;;;;;;;2.60;0.90;;;13.40;1.00;;;;;;4958220;28;21034;-90
2023/10/22 08:28:53;;;;;;;2.10;0.80;;;13.10;1.00;;;;;;4975130;28;20426;-90
2023/10/22 08:31:19;;;;;;;2.17;1.00;;;13.40;1.00;;;;;;4962734;28;20429;-90
2023/10/22 08:33:45;;;;;;;2.20;0.90;;;12.90;1.00;;;;;;4957181;28;20428;-91
2023/10/22 08:36:11;;;;;;;2.08;0.80;;;15.40;1.00;;;;;;4960775;28;20398;-91
2023/10/22 08:38:37;;;;;;;4.28;0.98;;;13.50;1.00;;;;;;4960503;28;20460;-91
2023/10/22 08:41:03;;;;;;;2.40;0.70;;;13.50;1.00;;;;;;4974462;28;20407;-93
2023/10/22 08:43:32;;;;;;;3.33;0.95;;;13.60;1.00;;;;;;4969673;28;20404;-90
2023/10/22 08:45:58;;;;;;;3.97;1.10;;;16.00;1.00;;;;;;4984678;23;20440;-80
2023/10/22 08:48:25;;;;;;;1.50;0.70;;;13.70;1.00;;;;;;4979765;28;20988;-80
2023/10/22 08:50:52;;;;;;;3.10;0.90;;;13.80;1.00;;;;;;4977498;28;20397;-80
2023/10/22 08:53:17;;;;;;;2.45;0.80;;;13.70;1.00;;;;;;4976622;28;20403;-80
2023/10/22 08:55:45;;;;;;;5.00;1.00;;;13.80;1.00;;;;;;4975687;28;20479;-80
2023/10/22 08:58:15;;;;;;;4.00;1.00;;;13.80;1.00;;;;;;4976025;28;20539;-80
2023/10/22 09:00:45;;;;;;;2.20;0.80;;;13.80;1.00;;;;;;4975820;28;20388;-80
2023/10/22 09:03:12;;;;;;;2.10;1.00;;;13.80;1.00;;;;;;4958336;28;20427;-80
2023/10/22 09:05:39;;;;;;;1.90;0.90;;;13.80;1.00;;;;;;4963586;28;20474;-80
2023/10/22 09:08:05;;;;;;;3.55;0.80;;;14.00;1.00;;;;;;4981494;28;20867;-80
2023/10/22 09:10:31;;;;;;;2.80;1.25;;;13.90;1.00;;;;;;4982327;28;20459;-80
2023/10/22 09:13:22;;;;;;;4.80;0.80;;;14.00;1.00;;;;;;4967205;28;20483;-79
2023/10/22 09:15:49;;;;;;;2.90;1.10;;;14.00;1.00;;;;;;4988415;28;20911;-79
2023/10/22 09:18:16;;;;;;;3.07;1.10;;;14.00;1.00;;;;;;4978513;28;20434;-80
2023/10/22 09:20:43;;;;;;;2.10;0.90;;;14.10;1.00;;;;;;5000081;28;20392;-80
2023/10/22 09:23:19;;;;;;;1.13;0.60;;;14.20;1.00;;;;;;4986247;28;20439;-81
2023/10/22 09:25:54;;;;;;;2.30;0.80;;;14.10;1.00;;;;;;4981801;28;20383;-81
2023/10/22 09:28:24;;;;;;;4.10;0.80;;;14.20;1.00;;;;;;5001378;28;20404;-81
2023/10/22 09:31:07;;;;;;;2.90;0.80;;;14.30;1.00;;;;;;5000804;28;20388;-81
2023/10/22 09:33:36;;;;;;;2.13;0.75;;;14.20;1.00;;;;;;5000081;28;20403;-82
2023/10/22 09:36:04;;;;;;;3.57;1.00;;;14.30;1.00;;;;;;4969800;28;20403;-81
2023/10/22 09:38:49;;;;;;;2.40;1.00;;;14.30;1.00;;;;;;4967862;28;20411;-82
2023/10/22 09:41:27;;;;;;;3.45;1.00;;;14.30;1.00;;;;;;4980542;28;20400;-80
2023/10/22 09:43:54;;;;;;;1.58;0.70;;;14.30;1.00;;;;;;5001020;28;20443;-81
2023/10/22 09:46:21;;;;;;;3.53;0.90;;;14.30;1.00;;;;;;4984170;28;20396;-80
2023/10/22 09:48:48;;;;;;;2.78;0.70;;;14.40;1.00;;;;;;4991839;28;20392;-81
2023/10/22 09:51:15;;;;;;;4.35;1.10;;;14.40;1.00;;;;;;4986294;28;20403;-81
2023/10/22 09:53:49;;;;;;;2.38;0.88;;;14.50;1.00;;;;;;4967045;28;20392;-80
2023/10/22 09:56:19;;;;;;;3.17;1.08;;;14.60;1.00;;;;;;4967386;28;20407;-80
2023/10/22 09:58:48;;;;;;;2.25;1.00;;;14.60;1.00;;;;;;4982819;28;20410;-80
2023/10/22 10:01:14;;;;;;;2.20;0.82;;;14.80;1.00;;;;;;4972199;28;20385;-80
2023/10/22 10:03:41;;;;;;;1.65;0.80;;;14.80;1.00;;;;;;4966740;28;20390;-80
2023/10/22 10:06:08;;;;;;;2.88;0.88;;;14.80;1.00;;;;;;4984812;28;20396;-82
2023/10/22 10:08:36;;;;;;;2.50;0.70;;;14.90;1.00;;;;;;4984624;28;20772;-81
2023/10/22 10:11:03;;;;;;;3.58;0.70;;;14.60;1.00;;;;;;4967248;28;20423;-82
2023/10/22 10:13:30;;;;;;;3.35;0.98;;;14.80;1.00;;;;;;4966866;28;20483;-81
2023/10/22 10:16:01;;;;;;;2.80;0.80;;;14.90;1.00;;;;;;4965973;28;20411;-81
2023/10/22 10:18:57;;;;;;;2.60;0.90;;;14.80;1.00;;;;;;4962316;28;20551;-81
2023/10/22 10:21:36;;;;;;;3.45;0.90;;;15.00;1.00;;;;;;4970360;28;20427;-82
2023/10/22 10:24:22;;;;;;;3.58;1.00;;;15.10;1.00;;;;;;4982572;28;20520;-83
2023/10/22 10:26:58;;;;;;;2.67;0.88;;;15.10;1.00;;;;;;4968938;28;20819;-82
2023/10/22 10:29:27;;;;;;;2.53;0.80;;;15.20;1.00;;;;;;4979141;28;20764;-81
2023/10/22 10:31:55;;;;;;;2.60;0.70;;;15.40;1.00;;;;;;4979756;28;20400;-82
2023/10/22 10:34:24;;;;;;;2.90;0.98;;;15.40;1.00;;;;;;4979031;28;20393;-82
2023/10/22 10:36:51;;;;;;;1.92;0.80;;;15.50;1.00;;;;;;4963009;28;20400;-82
2023/10/22 10:39:45;;;;;;;1.70;0.90;;;15.70;1.00;;;;;;4980166;28;20450;-80
2023/10/22 10:42:13;;;;;;;1.70;0.60;;;15.80;1.00;;;;;;4979694;28;20460;-80
2023/10/22 10:45:07;;;;;;;2.00;1.13;;;15.60;1.00;;;;;;4978569;28;20408;-81
2023/10/22 10:47:39;;;;;;;2.13;0.98;;;15.70;1.00;;;;;;4962604;28;20934;-80
2023/10/22 10:50:07;;;;;;;4.10;1.20;;;15.80;1.00;;;;;;4979020;28;20478;-80
2023/10/22 10:52:56;;;;;;;2.90;1.00;;;16.10;1.00;;;;;;4961775;28;20793;-81
2023/10/22 10:55:22;;;;;;;1.90;0.90;;;16.30;1.00;;;;;;4952616;28;20995;-81
2023/10/22 10:57:49;;;;;;;4.35;0.88;;;16.40;1.00;;;;;;4980258;28;20412;-81
2023/10/22 11:00:19;;;;;;;2.40;0.70;;;16.50;1.00;;;;;;4980476;28;20399;-81
2023/10/22 11:02:52;;;;;;;2.13;0.82;;;17.10;1.00;;;;;;4979190;28;20387;-80
2023/10/22 11:05:30;;;;;;;2.60;0.80;;;18.20;1.00;;;;;;4990989;28;20388;-81
2023/10/22 11:07:56;;;;;;;2.03;0.90;;;18.00;1.00;;;;;;4995213;28;20380;-81
2023/10/22 11:10:22;;;;;;;3.20;1.08;;;18.40;1.00;;;;;;4996694;28;20411;-81
2023/10/22 11:12:49;;;;;;;1.23;0.65;;;18.30;1.00;;;;;;4995542;28;20389;-83
2023/10/22 11:15:16;;;;;;;2.40;0.90;;;19.00;1.00;;;;;;4997464;28;20478;-82
2023/10/22 11:17:42;;;;;;;0.82;0.60;;;19.20;1.00;;;;;;4980001;28;20467;-82
2023/10/22 11:20:09;;;;;;;1.85;0.80;;;19.60;1.00;;;;;;4995545;28;20380;-82
2023/10/22 11:22:38;;;;;;;2.20;0.70;;;19.70;1.00;;;;;;4994995;28;20943;-83
2023/10/22 11:25:06;;;;;;;1.98;1.00;;;19.30;1.00;;;;;;4996950;28;20435;-82
2023/10/22 11:27:32;;;;;;;1.83;0.75;;;19.30;1.00;;;;;;4985768;28;20392;-83
2023/10/22 11:30:00;;;;;;;3.13;0.98;;;19.60;1.00;;;;;;4968848;28;20392;-83
2023/10/22 11:32:26;;;;;;;2.47;0.90;;;19.00;1.00;;;;;;4980112;28;20454;-82
2023/10/22 11:34:51;;;;;;;2.03;0.80;;;20.30;1.00;;;;;;4980427;28;20388;-83
2023/10/22 11:37:27;;;;;;;2.90;0.90;;;19.20;1.00;;;;;;4962321;28;20994;-82
2023/10/22 11:39:52;;;;;;;1.83;1.10;;;19.10;1.00;;;;;;4979305;28;20543;-82
2023/10/22 11:42:18;;;;;;;2.00;0.82;;;19.20;1.00;;;;;;4979306;28;20455;-82
2023/10/22 11:44:45;;;;;;;2.10;1.10;;;19.50;1.00;;;;;;4978951;28;20824;-82
2023/10/22 11:47:27;;;;;;;3.25;1.25;;;19.60;1.00;;;;;;4978715;28;20419;-82
2023/10/22 11:49:54;;;;;;;2.03;0.85;;;18.90;1.00;;;;;;4979131;28;20416;-82
2023/10/22 11:52:36;;;;;;;1.50;0.80;;;19.30;1.00;;;;;;4977639;28;20491;-82
2023/10/22 11:55:02;;;;;;;4.00;0.80;;;19.00;1.00;;;;;;4961041;28;20471;-83
2023/10/22 11:57:28;;;;;;;2.15;1.00;;;19.90;1.00;;;;;;4978431;28;20444;-82
2023/10/22 11:59:54;;;;;;;1.47;0.70;;;20.00;1.00;;;;;;4978934;28;20415;-81
2023/10/22 12:02:19;;;;;;;2.40;1.00;;;20.10;1.00;;;;;;4979334;28;20482;-82
2023/10/22 12:04:47;;;;;;;2.88;1.00;;;19.90;1.00;;;;;;4978984;28;20403;-82
2023/10/22 12:07:12;;;;;;;2.95;0.80;;;19.70;1.00;;;;;;4979489;28;20764;-83
2023/10/22 12:09:39;;;;;;;2.50;0.90;;;19.30;1.00;;;;;;4977230;28;20415;-81
2023/10/22 12:12:05;;;;;;;1.80;0.70;;;19.40;1.00;;;;;;4978427;28;20884;-82
2023/10/22 12:14:31;;;;;;;1.70;0.68;;;19.10;1.00;;;;;;4979130;28;20470;-82
2023/10/22 12:16:57;;;;;;;2.10;0.70;;;19.50;1.00;;;;;;4961041;28;20409;-82
2023/10/22 12:19:22;;;;;;;2.60;0.80;;;18.90;1.00;;;;;;4960534;28;20431;-81
2023/10/22 12:21:49;;;;;;;1.35;0.90;;;19.70;1.00;;;;;;4977284;28;20415;-82
2023/10/22 12:24:14;;;;;;;2.00;0.90;;;19.80;1.00;;;;;;4962455;28;20396;-81
2023/10/22 12:26:40;;;;;;;2.00;0.60;;;19.00;1.00;;;;;;4960878;28;20865;-81
2023/10/22 12:29:05;;;;;;;3.20;0.60;;;18.90;1.00;;;;;;4979048;28;20404;-82
2023/10/22 12:31:31;;;;;;;3.85;1.00;;;19.30;1.00;;;;;;4960126;28;20463;-80
2023/10/22 12:33:57;;;;;;;2.25;1.00;;;18.90;1.00;;;;;;4978120;28;20876;-80
2023/10/22 12:36:22;;;;;;;2.75;0.57;;;19.00;1.00;;;;;;4965175;28;20404;-80
2023/10/22 12:38:48;;;;;;;2.30;0.80;;;20.80;1.00;;;;;;4977881;28;20404;-81
2023/10/22 12:41:14;;;;;;;1.70;0.68;;;18.90;1.00;;;;;;4962407;28;20900;-80
2023/10/22 12:43:39;;;;;;;1.40;0.50;;;19.60;1.00;;;;;;4961269;28;20395;-80
2023/10/22 12:46:05;;;;;;;2.55;0.80;;;18.70;1.00;;;;;;4978287;28;20883;-81
2023/10/22 12:48:30;;;;;;;2.07;0.60;;;18.90;1.00;;;;;;4977423;28;20454;-82
2023/10/22 12:50:56;;;;;;;2.53;0.70;;;19.20;1.00;;;;;;4960459;28;20584;-80
2023/10/22 12:53:21;;;;;;;2.70;0.83;;;19.50;1.00;;;;;;4961633;28;20428;-81
2023/10/22 12:55:54;;;;;;;1.60;0.90;;;19.60;1.00;;;;;;4979162;28;20400;-82
2023/10/22 12:58:19;;;;;;;3.47;0.90;;;19.70;1.00;;;;;;4977726;28;20498;-81
2023/10/22 13:00:48;;;;;;;2.40;0.90;;;20.10;1.00;;;;;;4976814;28;20986;-81